createdAt,value
2017-10-10T00:00:32.520Z,11.50
2017-10-10T00:03:00.629Z,10.13
2017-10-10T00:05:29.416Z,9.87
2017-10-10T00:07:57.312Z,11.13
2017-10-10T00:10:25.131Z,10.60
2017-10-10T00:12:53.016Z,10.13
2017-10-10T00:15:20.815Z,10.43
2017-10-10T00:17:49.465Z,12.03
2017-10-10T00:20:17.446Z,11.03
2017-10-10T00:22:45.197Z,10.77
2017-10-10T00:25:12.976Z,9.20
2017-10-10T00:27:40.866Z,10.47
2017-10-10T00:30:09.615Z,9.60
2017-10-10T00:32:37.594Z,10.00
2017-10-10T00:35:05.723Z,11.57
2017-10-10T00:37:37.845Z,11.50
2017-10-10T00:40:05.997Z,10.97
2017-10-10T00:42:33.987Z,10.80
2017-10-10T00:45:01.934Z,10.47
2017-10-10T00:47:29.716Z,11.43
2017-10-10T00:49:57.995Z,11.40
2017-10-10T00:52:25.964Z,10.43
2017-10-10T00:54:54.144Z,11.53
2017-10-10T00:57:23.013Z,11.80
2017-10-10T00:59:51.758Z,13.63
2017-10-10T01:02:19.663Z,12.77
2017-10-10T01:04:47.760Z,9.67
2017-10-10T01:07:15.810Z,9.27
2017-10-10T01:09:43.678Z,10.60
2017-10-10T01:12:11.462Z,10.37
2017-10-10T01:14:39.609Z,10.93
2017-10-10T01:17:07.489Z,11.47
2017-10-10T01:19:35.486Z,10.30
2017-10-10T01:22:04.097Z,11.13
2017-10-10T01:24:32.180Z,8.87
2017-10-10T01:27:00.182Z,11.07
2017-10-10T01:29:28.051Z,10.33
2017-10-10T01:31:56.741Z,11.10
2017-10-10T01:34:24.603Z,10.80
2017-10-10T01:36:52.556Z,11.23
2017-10-10T01:39:20.439Z,10.40
2017-10-10T01:41:48.286Z,12.10
2017-10-10T01:44:16.232Z,11.67
2017-10-10T01:46:44.198Z,10.77
2017-10-10T01:49:12.296Z,11.10
2017-10-10T01:51:40.187Z,11.33
2017-10-10T01:54:07.914Z,11.40
2017-10-10T01:56:35.702Z,12.13
2017-10-10T01:59:03.668Z,12.60
2017-10-10T02:01:31.641Z,12.40
2017-10-10T02:03:59.614Z,13.27
2017-10-10T02:06:27.381Z,12.80
2017-10-10T02:08:55.144Z,11.07
2017-10-10T02:11:23.100Z,11.07
2017-10-10T02:13:50.902Z,13.57
2017-10-10T02:16:19.630Z,11.10
2017-10-10T02:18:47.379Z,10.93
2017-10-10T02:21:15.278Z,9.80
2017-10-10T02:23:43.258Z,9.80
2017-10-10T02:26:11.232Z,11.80
2017-10-10T02:28:39.202Z,11.17
2017-10-10T02:31:07.276Z,11.20
2017-10-10T02:33:35.547Z,11.60
2017-10-10T02:36:03.424Z,12.77
2017-10-10T02:38:31.299Z,11.70
2017-10-10T02:40:59.090Z,12.80
2017-10-10T02:43:27.169Z,12.80
2017-10-10T02:45:55.082Z,11.97
2017-10-10T02:48:22.993Z,14.43
2017-10-10T02:50:52.248Z,12.97
2017-10-10T02:53:20.214Z,13.40
2017-10-10T02:55:47.986Z,17.37
2017-10-10T02:58:15.948Z,13.40
2017-10-10T03:00:43.821Z,16.20
2017-10-10T03:03:11.673Z,13.03
2017-10-10T03:05:39.587Z,11.80
2017-10-10T03:08:08.234Z,10.67
2017-10-10T03:10:35.997Z,11.03
2017-10-10T03:13:03.960Z,12.57
2017-10-10T03:15:31.936Z,14.57
2017-10-10T03:17:59.693Z,12.47
2017-10-10T03:20:27.682Z,17.43
2017-10-10T03:22:55.626Z,14.10
2017-10-10T03:25:24.515Z,15.80
2017-10-10T03:27:52.314Z,15.20
2017-10-10T03:30:21.133Z,11.93
2017-10-10T03:32:48.948Z,15.93
2017-10-10T03:35:16.815Z,16.07
2017-10-10T03:37:44.683Z,15.30
2017-10-10T03:40:12.551Z,13.20
2017-10-10T03:42:41.063Z,13.93
2017-10-10T03:45:08.839Z,12.50
2017-10-10T03:47:36.694Z,11.30
2017-10-10T03:50:05.540Z,12.33
2017-10-10T03:52:33.303Z,12.30
2017-10-10T03:55:01.700Z,13.03
2017-10-10T03:57:29.562Z,9.03
2017-10-10T03:59:57.331Z,12.57
2017-10-10T04:02:25.198Z,11.43
2017-10-10T04:04:53.141Z,10.23
2017-10-10T04:07:21.004Z,11.63
2017-10-10T04:09:48.787Z,14.23
2017-10-10T04:12:16.558Z,11.40
2017-10-10T04:14:44.603Z,14.57
2017-10-10T04:17:12.587Z,12.93
2017-10-10T04:19:40.333Z,13.93
2017-10-10T04:22:08.524Z,14.83
2017-10-10T04:24:36.294Z,13.17
2017-10-10T04:27:04.051Z,13.23
2017-10-10T04:29:31.905Z,12.43
2017-10-10T04:31:59.783Z,13.17
2017-10-10T04:34:27.651Z,12.00
2017-10-10T04:36:55.404Z,12.33
2017-10-10T04:39:24.697Z,12.80
2017-10-10T04:41:52.790Z,13.23
2017-10-10T04:44:20.554Z,12.03
2017-10-10T04:46:48.506Z,12.67
2017-10-10T04:49:16.300Z,13.20
2017-10-10T04:51:44.191Z,12.17
2017-10-10T04:54:12.836Z,12.17
2017-10-10T04:56:40.588Z,11.27
2017-10-10T04:59:08.470Z,11.73
2017-10-10T05:01:37.493Z,12.50
2017-10-10T05:04:06.355Z,12.40
2017-10-10T05:06:34.304Z,12.80
2017-10-10T05:09:02.910Z,12.00
2017-10-10T05:11:30.875Z,11.37
2017-10-10T05:13:58.940Z,14.80
2017-10-10T05:16:26.808Z,12.30
2017-10-10T05:18:54.548Z,14.70
2017-10-10T05:21:22.282Z,13.07
2017-10-10T05:23:50.775Z,12.10
2017-10-10T05:26:18.791Z,14.13
2017-10-10T05:28:46.777Z,15.73
2017-10-10T05:31:14.632Z,13.10
2017-10-10T05:33:42.489Z,12.53
2017-10-10T05:36:10.863Z,13.10
2017-10-10T05:38:38.718Z,13.00
2017-10-10T05:41:07.524Z,12.90
2017-10-10T05:43:35.534Z,13.80
2017-10-10T05:46:04.147Z,13.87
2017-10-10T05:48:32.043Z,13.70
2017-10-10T05:51:00.606Z,11.57
2017-10-10T05:53:28.359Z,13.20
2017-10-10T05:55:56.052Z,14.10
2017-10-10T05:58:23.767Z,13.97
2017-10-10T06:00:51.600Z,12.00
2017-10-10T06:03:32.039Z,12.57
2017-10-10T06:05:59.892Z,11.77
2017-10-10T06:08:27.591Z,10.10
2017-10-10T06:10:55.314Z,12.10
2017-10-10T06:13:23.043Z,12.43
2017-10-10T06:15:50.772Z,12.17
2017-10-10T06:18:18.457Z,13.37
2017-10-10T06:20:47.088Z,12.50
2017-10-10T06:23:14.790Z,13.60
2017-10-10T06:25:42.538Z,10.57
2017-10-10T06:28:10.228Z,12.03
2017-10-10T06:30:38.755Z,11.47
2017-10-10T06:33:06.476Z,11.90
2017-10-10T06:35:34.930Z,12.20
2017-10-10T06:38:02.753Z,12.07
2017-10-10T06:40:30.475Z,11.70
2017-10-10T06:42:59.015Z,10.17
2017-10-10T06:45:26.718Z,10.87
2017-10-10T06:47:54.432Z,10.70
2017-10-10T06:50:22.247Z,11.43
2017-10-10T06:52:50.710Z,11.30
2017-10-10T06:55:18.371Z,10.73
2017-10-10T06:57:46.062Z,10.57
2017-10-10T07:00:14.897Z,11.63
2017-10-10T07:02:42.612Z,10.10
2017-10-10T07:05:11.252Z,9.07
2017-10-10T07:07:39.005Z,10.07
2017-10-10T07:10:06.738Z,10.30
2017-10-10T07:12:34.432Z,9.13
2017-10-10T07:15:02.130Z,8.30
2017-10-10T07:17:29.868Z,8.07
2017-10-10T07:19:57.557Z,9.63
2017-10-10T07:22:25.241Z,10.27
2017-10-10T07:24:53.707Z,9.20
2017-10-10T07:27:22.178Z,8.87
2017-10-10T07:29:50.768Z,9.00
2017-10-10T07:32:19.236Z,8.37
2017-10-10T07:34:47.060Z,7.37
2017-10-10T07:37:14.870Z,8.60
2017-10-10T07:39:42.561Z,8.33
2017-10-10T07:42:11.035Z,8.60
2017-10-10T07:44:39.632Z,8.40
2017-10-10T07:47:07.455Z,9.80
2017-10-10T07:49:35.190Z,9.27
2017-10-10T07:52:02.959Z,9.37
2017-10-10T07:54:30.733Z,8.17
2017-10-10T07:56:58.590Z,8.70
2017-10-10T07:59:26.395Z,9.90
2017-10-10T08:01:54.527Z,7.77
2017-10-10T08:04:22.278Z,8.40
2017-10-10T08:06:50.109Z,7.77
2017-10-10T08:09:18.580Z,8.37
2017-10-10T08:11:47.586Z,8.10
2017-10-10T08:14:16.034Z,7.03
2017-10-10T08:16:43.725Z,7.67
2017-10-10T08:19:12.472Z,6.80
2017-10-10T08:21:40.144Z,6.50
2017-10-10T08:24:07.836Z,6.60
2017-10-10T08:26:36.299Z,7.63
2017-10-10T08:29:04.283Z,6.70
2017-10-10T08:31:32.734Z,6.30
2017-10-10T08:34:00.491Z,6.80
2017-10-10T08:36:28.225Z,6.57
2017-10-10T08:38:56.014Z,5.67
2017-10-10T08:41:23.873Z,6.70
2017-10-10T08:43:51.790Z,6.10
2017-10-10T08:46:20.326Z,6.83
2017-10-10T08:48:48.084Z,6.63
2017-10-10T08:51:16.423Z,7.87
2017-10-10T08:53:44.886Z,6.43
2017-10-10T08:56:12.613Z,6.67
2017-10-10T08:58:41.193Z,5.50
2017-10-10T09:01:08.927Z,6.07
2017-10-10T09:03:36.623Z,6.53
2017-10-10T09:06:04.303Z,5.67
2017-10-10T09:08:32.784Z,5.30
2017-10-10T09:11:00.449Z,5.60
2017-10-10T09:13:28.137Z,5.30
2017-10-10T09:15:56.671Z,4.40
2017-10-10T09:18:24.360Z,5.73
2017-10-10T09:20:53.667Z,6.97
2017-10-10T09:23:21.412Z,6.60
2017-10-10T09:25:49.242Z,5.20
2017-10-10T09:28:17.123Z,6.03
2017-10-10T09:30:44.899Z,5.90
2017-10-10T09:33:12.651Z,6.33
2017-10-10T09:35:41.131Z,6.60
2017-10-10T09:38:09.708Z,7.33
2017-10-10T09:40:37.501Z,8.27
2017-10-10T09:43:05.259Z,8.10
2017-10-10T09:45:33.015Z,8.70
2017-10-10T09:48:00.696Z,9.63
2017-10-10T09:50:28.380Z,8.63
2017-10-10T09:52:56.829Z,9.40
2017-10-10T09:55:24.691Z,9.70
2017-10-10T09:57:52.376Z,10.17
2017-10-10T10:00:20.820Z,9.30
2017-10-10T10:02:49.642Z,9.57
2017-10-10T10:05:17.317Z,9.50
2017-10-10T10:07:46.172Z,10.20
2017-10-10T10:10:13.885Z,8.40
2017-10-10T10:12:42.427Z,7.23
2017-10-10T10:15:10.167Z,7.27
2017-10-10T10:17:37.886Z,7.60
2017-10-10T10:20:06.423Z,7.97
2017-10-10T10:22:34.113Z,7.20
2017-10-10T10:25:02.705Z,7.10
2017-10-10T10:27:30.428Z,7.17
2017-10-10T10:29:58.900Z,6.50
2017-10-10T10:32:26.638Z,7.20
2017-10-10T10:34:54.324Z,7.00
2017-10-10T10:37:22.099Z,6.43
2017-10-10T10:39:49.773Z,6.83
2017-10-10T10:42:17.453Z,7.03
2017-10-10T10:44:45.148Z,6.83
2017-10-10T10:47:12.872Z,6.80
2017-10-10T10:49:40.569Z,6.50
2017-10-10T10:52:09.052Z,6.50
2017-10-10T10:54:37.501Z,7.37
2017-10-10T10:57:05.342Z,6.20
2017-10-10T10:59:33.027Z,5.83
2017-10-10T11:02:00.820Z,6.57
2017-10-10T11:04:29.284Z,6.90
2017-10-10T11:06:57.013Z,8.40
2017-10-10T11:09:24.881Z,9.10
2017-10-10T11:11:52.643Z,9.73
2017-10-10T11:14:20.545Z,8.53
2017-10-10T11:16:48.310Z,10.50
2017-10-10T11:19:16.939Z,10.20
2017-10-10T11:21:44.683Z,9.30
2017-10-10T11:24:12.598Z,10.03
2017-10-10T11:26:41.066Z,9.60
2017-10-10T11:29:08.772Z,9.30
2017-10-10T11:31:37.426Z,9.03
2017-10-10T11:34:05.168Z,9.07
2017-10-10T11:36:33.034Z,9.50
2017-10-10T11:39:00.766Z,9.00
2017-10-10T11:41:29.234Z,8.73
2017-10-10T11:43:57.743Z,8.67
2017-10-10T11:46:25.514Z,7.93
2017-10-10T11:48:53.311Z,7.40
2017-10-10T11:51:21.271Z,7.80
2017-10-10T11:53:49.189Z,7.20
2017-10-10T11:56:17.644Z,6.87
2017-10-10T11:58:45.774Z,6.67
2017-10-10T12:01:13.662Z,7.60
2017-10-10T12:03:41.459Z,7.23
2017-10-10T12:06:10.013Z,7.00
2017-10-10T12:08:37.767Z,5.93
2017-10-10T12:11:05.651Z,6.13
2017-10-10T12:13:33.755Z,5.83
2017-10-10T12:16:03.421Z,6.10
2017-10-10T12:18:31.281Z,5.67
2017-10-10T12:20:59.110Z,5.40
2017-10-10T12:23:26.865Z,5.20
2017-10-10T12:25:55.320Z,5.63
2017-10-10T12:28:23.567Z,5.20
2017-10-10T12:30:51.338Z,6.30
2017-10-10T12:33:19.198Z,6.67
2017-10-10T12:35:46.927Z,5.50
2017-10-10T12:38:14.835Z,6.10
2017-10-10T12:40:42.537Z,6.77
2017-10-10T12:43:11.038Z,6.43
2017-10-10T12:45:38.941Z,6.30
2017-10-10T12:48:07.473Z,5.47
2017-10-10T12:50:35.929Z,5.60
2017-10-10T12:53:03.665Z,4.70
2017-10-10T12:55:31.433Z,5.70
2017-10-10T12:57:59.151Z,4.87
2017-10-10T13:00:27.900Z,5.20
2017-10-10T13:02:55.657Z,5.10
2017-10-10T13:05:24.356Z,4.83
2017-10-10T13:07:53.820Z,7.17
2017-10-10T13:10:21.538Z,33.70
2017-10-10T13:12:50.003Z,10.07
2017-10-10T13:15:17.865Z,5.53
2017-10-10T13:17:45.625Z,6.30
2017-10-10T13:20:13.771Z,6.50
2017-10-10T13:22:41.457Z,5.77
2017-10-10T13:25:09.291Z,5.60
2017-10-10T13:27:37.190Z,7.00
2017-10-10T13:30:05.057Z,6.13
2017-10-10T13:32:33.059Z,7.03
2017-10-10T13:35:01.716Z,7.70
2017-10-10T13:37:29.756Z,5.10
2017-10-10T13:39:57.432Z,6.10
2017-10-10T13:42:25.310Z,5.70
2017-10-10T13:44:53.273Z,7.07
2017-10-10T13:47:21.692Z,6.67
2017-10-10T13:49:50.232Z,6.53
2017-10-10T13:52:17.912Z,6.60
2017-10-10T13:54:46.311Z,6.80
2017-10-10T13:57:15.064Z,7.87
2017-10-10T13:59:43.110Z,8.07
2017-10-10T14:02:10.791Z,7.97
2017-10-10T14:04:38.507Z,7.10
2017-10-10T14:07:06.971Z,6.33
2017-10-10T14:09:35.448Z,6.40
2017-10-10T14:12:03.323Z,6.03
2017-10-10T14:14:32.698Z,5.90
2017-10-10T14:17:00.414Z,5.67
2017-10-10T14:19:28.146Z,5.50
2017-10-10T14:21:56.698Z,5.13
2017-10-10T14:24:24.464Z,5.63
2017-10-10T14:26:52.321Z,5.20
2017-10-10T14:29:20.529Z,5.30
2017-10-10T14:31:48.231Z,7.80
2017-10-10T14:34:15.921Z,5.40
2017-10-10T14:36:44.811Z,7.23
2017-10-10T14:39:12.508Z,5.47
2017-10-10T14:41:40.196Z,5.53
2017-10-10T14:44:08.727Z,5.40
2017-10-10T14:46:36.452Z,5.27
2017-10-10T14:49:04.178Z,5.23
2017-10-10T14:51:31.898Z,5.03
2017-10-10T14:53:59.770Z,5.23
2017-10-10T14:56:27.522Z,4.60
2017-10-10T14:58:56.437Z,6.20
2017-10-10T15:01:24.212Z,5.77
2017-10-10T15:03:52.075Z,3.70
2017-10-10T15:06:19.828Z,4.77
2017-10-10T15:08:47.734Z,4.57
2017-10-10T15:11:16.397Z,5.00
2017-10-10T15:13:44.974Z,4.13
2017-10-10T15:16:12.927Z,4.27
2017-10-10T15:18:40.644Z,4.47
2017-10-10T15:21:09.208Z,5.20
2017-10-10T15:23:37.056Z,5.13
2017-10-10T15:26:05.008Z,4.30
2017-10-10T15:28:33.191Z,4.50
2017-10-10T15:31:00.963Z,5.00
2017-10-10T15:33:29.032Z,4.50
2017-10-10T15:35:56.898Z,4.67
2017-10-10T15:38:24.663Z,4.50
2017-10-10T15:40:52.546Z,4.00
2017-10-10T15:43:20.411Z,4.27
2017-10-10T15:45:49.270Z,5.03
2017-10-10T15:48:18.370Z,4.63
2017-10-10T15:50:46.893Z,4.90
2017-10-10T15:53:14.920Z,4.20
2017-10-10T15:55:42.783Z,4.40
2017-10-10T15:58:10.752Z,4.70
2017-10-10T16:00:38.635Z,4.67
2017-10-10T16:03:07.412Z,4.07
2017-10-10T16:05:36.507Z,5.20
2017-10-10T16:08:04.385Z,5.20
2017-10-10T16:10:34.294Z,4.50
2017-10-10T16:13:03.219Z,4.27
2017-10-10T16:15:32.320Z,5.47
2017-10-10T16:18:01.963Z,4.20
2017-10-10T16:20:29.861Z,4.93
2017-10-10T16:22:57.723Z,5.77
2017-10-10T16:25:25.676Z,5.70
2017-10-10T16:27:53.860Z,5.77
2017-10-10T16:30:22.103Z,5.53
2017-10-10T16:32:51.121Z,4.83
2017-10-10T16:35:19.373Z,4.67
2017-10-10T16:37:47.265Z,4.60
2017-10-10T16:40:15.246Z,5.17
2017-10-10T16:42:43.017Z,4.90
2017-10-10T16:45:10.967Z,5.17
2017-10-10T16:47:38.983Z,5.70
2017-10-10T16:50:07.863Z,6.47
2017-10-10T16:52:36.617Z,7.40
2017-10-10T16:55:04.585Z,5.90
2017-10-10T16:57:32.489Z,11.80
2017-10-10T17:00:00.530Z,18.03
2017-10-10T17:02:28.409Z,14.13
2017-10-10T17:04:56.928Z,15.43
2017-10-10T17:07:25.654Z,15.80
2017-10-10T17:09:53.536Z,11.43
2017-10-10T17:12:21.607Z,11.27
2017-10-10T17:14:49.561Z,8.30
2017-10-10T17:17:17.684Z,11.37
2017-10-10T17:19:46.340Z,11.50
2017-10-10T17:22:15.685Z,10.93
2017-10-10T17:24:43.578Z,12.17
2017-10-10T17:27:11.371Z,8.67
2017-10-10T17:29:39.231Z,8.77
2017-10-10T17:32:07.206Z,8.37
2017-10-10T17:34:35.052Z,9.50
2017-10-10T17:37:02.956Z,8.23
2017-10-10T17:39:30.784Z,9.13
2017-10-10T17:41:58.825Z,9.20
2017-10-10T17:44:26.660Z,9.90
2017-10-10T17:46:55.311Z,8.77
2017-10-10T17:49:23.330Z,8.83
2017-10-10T17:51:51.936Z,8.90
2017-10-10T17:54:20.444Z,9.70
2017-10-10T17:56:48.310Z,8.43
2017-10-10T17:59:16.691Z,9.83
2017-10-10T18:01:44.717Z,9.60
2017-10-10T18:04:13.380Z,8.50
2017-10-10T18:06:41.620Z,8.73
2017-10-10T18:09:10.915Z,9.17
2017-10-10T18:11:38.898Z,9.07
2017-10-10T18:14:06.783Z,8.70
2017-10-10T18:16:34.729Z,8.83
2017-10-10T18:19:02.638Z,9.90
2017-10-10T18:21:31.721Z,8.70
2017-10-10T18:23:59.859Z,8.73
2017-10-10T18:26:27.828Z,8.77
2017-10-10T18:28:55.711Z,7.50
2017-10-10T18:31:23.670Z,7.87
2017-10-10T18:33:51.637Z,7.00
2017-10-10T18:36:19.640Z,6.13
2017-10-10T18:38:48.398Z,6.63
2017-10-10T18:41:16.460Z,7.10
2017-10-10T18:43:44.353Z,6.67
2017-10-10T18:46:12.290Z,6.50
2017-10-10T18:48:40.213Z,6.43
2017-10-10T18:51:08.945Z,5.97
2017-10-10T18:53:37.797Z,5.80
2017-10-10T18:56:06.453Z,7.07
2017-10-10T18:58:34.251Z,6.30
2017-10-10T19:01:02.071Z,6.20
2017-10-10T19:03:30.227Z,6.43
2017-10-10T19:05:58.118Z,6.53
2017-10-10T19:08:26.884Z,5.80
2017-10-10T19:10:54.849Z,6.57
2017-10-10T19:13:23.514Z,6.67
2017-10-10T19:15:51.519Z,7.10
2017-10-10T19:18:19.496Z,8.10
2017-10-10T19:20:47.570Z,6.27
2017-10-10T19:23:15.820Z,7.57
2017-10-10T19:25:43.711Z,7.40
2017-10-10T19:28:11.782Z,7.20
2017-10-10T19:30:39.692Z,7.63
2017-10-10T19:33:07.696Z,7.03
2017-10-10T19:35:35.688Z,7.77
2017-10-10T19:38:03.557Z,7.07
2017-10-10T19:40:31.425Z,6.90
2017-10-10T19:42:59.364Z,8.40
2017-10-10T19:45:27.237Z,8.40
2017-10-10T19:47:55.715Z,9.00
2017-10-10T19:50:23.579Z,8.00
2017-10-10T19:52:51.651Z,7.07
2017-10-10T19:55:19.730Z,8.40
2017-10-10T19:57:49.312Z,8.00
2017-10-10T20:00:17.301Z,7.60
2017-10-10T20:02:45.923Z,7.73
2017-10-10T20:05:14.669Z,6.83
2017-10-10T20:07:42.538Z,7.00
2017-10-10T20:10:10.620Z,6.63
2017-10-10T20:12:38.499Z,8.20
2017-10-10T20:15:06.344Z,7.53
2017-10-10T20:17:34.323Z,6.70
2017-10-10T20:20:02.379Z,8.00
2017-10-10T20:22:30.276Z,6.00
2017-10-10T20:24:58.845Z,7.57
2017-10-10T20:27:26.898Z,6.80
2017-10-10T20:29:54.742Z,6.20
2017-10-10T20:32:22.513Z,5.80
2017-10-10T20:34:50.280Z,6.87
2017-10-10T20:37:18.196Z,6.53
2017-10-10T20:39:46.148Z,6.33
2017-10-10T20:42:14.215Z,7.20
2017-10-10T20:44:42.027Z,6.53
2017-10-10T20:47:10.672Z,6.90
2017-10-10T20:49:39.154Z,6.17
2017-10-10T20:52:07.760Z,5.87
2017-10-10T20:54:36.399Z,6.43
2017-10-10T20:57:04.171Z,5.87
2017-10-10T20:59:32.046Z,6.30
2017-10-10T21:01:59.914Z,6.00
2017-10-10T21:04:27.725Z,7.40
2017-10-10T21:06:55.547Z,6.60
2017-10-10T21:09:23.510Z,6.17
2017-10-10T21:11:51.274Z,5.63
2017-10-10T21:14:19.149Z,6.70
2017-10-10T21:16:46.974Z,7.20
2017-10-10T21:19:15.492Z,7.43
2017-10-10T21:21:43.364Z,6.80
2017-10-10T21:24:11.120Z,5.90
2017-10-10T21:26:38.970Z,6.20
2017-10-10T21:29:07.499Z,5.90
2017-10-10T21:31:36.053Z,6.03
2017-10-10T21:34:03.897Z,6.67
2017-10-10T21:36:31.679Z,7.57
2017-10-10T21:38:59.578Z,6.93
2017-10-10T21:41:28.112Z,6.33
2017-10-10T21:43:55.892Z,7.43
2017-10-10T21:46:24.579Z,6.83
2017-10-10T21:48:52.560Z,6.50
2017-10-10T21:51:20.932Z,5.53
2017-10-10T21:53:48.700Z,7.17
2017-10-10T21:56:16.644Z,5.50
2017-10-10T21:58:44.509Z,6.50
2017-10-10T22:01:12.318Z,6.73
2017-10-10T22:03:40.157Z,6.03
2017-10-10T22:06:07.929Z,5.90
2017-10-10T22:08:35.822Z,5.50
2017-10-10T22:11:04.375Z,5.00
2017-10-10T22:13:32.136Z,5.20
2017-10-10T22:16:00.087Z,5.30
2017-10-10T22:18:27.970Z,5.17
2017-10-10T22:20:55.746Z,5.70
2017-10-10T22:23:24.312Z,5.50
2017-10-10T22:25:52.080Z,5.10
2017-10-10T22:28:19.843Z,5.20
2017-10-10T22:30:47.707Z,5.90
2017-10-10T22:33:15.788Z,6.27
2017-10-10T22:35:43.560Z,5.17
2017-10-10T22:38:11.345Z,5.07
2017-10-10T22:40:39.840Z,5.03
2017-10-10T22:43:07.666Z,5.77
2017-10-10T22:45:35.431Z,5.20
2017-10-10T22:48:03.211Z,6.40
2017-10-10T22:50:30.999Z,5.77
2017-10-10T22:52:58.898Z,4.97
2017-10-10T22:55:26.682Z,5.10
2017-10-10T22:57:54.529Z,4.87
2017-10-10T23:00:22.354Z,5.00
2017-10-10T23:02:51.114Z,4.43
2017-10-10T23:05:18.966Z,5.17
2017-10-10T23:07:46.735Z,3.77
2017-10-10T23:10:14.556Z,5.53
2017-10-10T23:12:42.300Z,6.43
2017-10-10T23:15:11.032Z,4.70
2017-10-10T23:17:38.829Z,4.50
2017-10-10T23:20:06.678Z,5.03
2017-10-10T23:22:37.306Z,4.60
2017-10-10T23:25:05.261Z,5.57
2017-10-10T23:27:33.022Z,7.20
2017-10-10T23:30:00.908Z,6.60
2017-10-10T23:32:28.674Z,7.50
2017-10-10T23:34:56.418Z,8.40
2017-10-10T23:37:25.131Z,8.63
2017-10-10T23:39:52.987Z,7.17
2017-10-10T23:42:20.752Z,8.33
2017-10-10T23:44:48.517Z,8.10
2017-10-10T23:47:16.319Z,7.97
2017-10-10T23:49:44.857Z,11.07
2017-10-10T23:52:12.635Z,7.30
2017-10-10T23:54:40.496Z,7.40
2017-10-10T23:57:08.256Z,6.90
2017-10-10T23:59:36.227Z,6.67
